Latest Weather Observations for Falls Creek

IDV60801

Issued at 1:02 pm EST Tuesday 3 May 2016 (issued every 30 minutes, with the page automatically refreshed every 10 minutes)

About weather observations | Map of weather stations | Latest weather observations for VIC | Other Formats
Station Details ID: 083084 Name: FALLS CREEK Lat: -36.87 Lon: 147.28 Height: 1765.0 m
Data from the previous 72 hours. | See also: Recent months at Falls Creek
Date/Time
EST
Temp
°C
App
Temp
°C
Dew
Point
Rel
Hum
%
Delta-T
°C
Wind Press
QNH
hPa
Press
MSL
hPa
Rain
since 9 am
mm
Dir
 
Spd
km/h
Gust
km/h
Spd
kts
Gust
kts
03/01:00pm 2.6 1.0 2.6 100 0.0 CALM 0 0 0 0 1004.4 1003.2 0.0
03/12:30pm 2.7 1.1 2.7 100 0.0 CALM 0 0 0 0 1005.0 1003.8 0.0
03/12:00pm 2.1 0.4 2.1 100 0.0 CALM 0 0 0 0 1005.4 1004.2 0.0
03/11:30am 1.6 -0.1 1.6 100 0.0 CALM 0 0 0 0 1006.0 1004.8 0.0
03/11:00am 1.4 -0.4 1.4 100 0.0 CALM 0 0 0 0 1006.3 1005.2 0.0
03/10:30am 1.3 -0.5 1.3 100 0.0 CALM 0 0 0 0 1006.6 1005.4 0.0
03/10:00am 1.1 -0.7 1.1 100 0.0 CALM 0 0 0 0 1007.0 1005.9 0.0
03/09:30am 1.0 -0.8 1.0 100 0.0 CALM 0 0 0 0 1007.0 1005.9 0.0
03/09:00am 0.9 -0.9 0.9 100 0.0 CALM 0 0 0 0 1007.1 1006.1 0.0
03/08:30am 0.9 -0.9 0.9 100 0.0 CALM 0 0 0 0 1007.5 1006.4 0.0
03/08:00am 0.9 -0.9 0.9 100 0.0 CALM 0 0 0 0 1007.7 1006.7 0.0
03/07:30am 0.9 -0.9 0.9 100 0.0 CALM 0 0 0 0 1008.1 1007.0 0.0
03/07:00am 0.9 -0.9 0.9 100 0.0 CALM 0 0 0 0 1008.5 1007.4 0.0
03/06:30am 0.9 -0.9 0.9 100 0.0 CALM 0 0 0 0 1009.2 1008.2 0.0
03/06:00am 0.8 -1.1 0.8 100 0.0 CALM 0 0 0 0 1009.4 1008.4 0.0
03/05:30am 0.9 -0.9 0.9 100 0.0 CALM 0 0 0 0 1009.5 1008.5 0.0
03/05:00am 0.9 -0.9 0.9 100 0.0 CALM 0 0 0 0 1009.6 1008.7 0.0
03/04:30am 0.8 -1.1 0.8 100 0.0 CALM 0 0 0 0 1009.5 1008.5 0.0
03/04:00am 0.7 -1.2 0.7 100 0.0 CALM 0 0 0 0 1009.2 1008.2 0.0
03/03:30am 0.7 -1.2 0.7 100 0.0 CALM 0 0 0 0 1009.2 1008.2 0.0
03/03:00am 0.6 -1.3 0.6 100 0.0 CALM 0 0 0 0 1009.6 1008.7 0.0
03/02:30am 0.6 -1.3 0.6 100 0.0 CALM 0 0 0 0 1010.0 1009.0 0.0
03/02:00am 0.6 -1.3 0.6 100 0.0 CALM 0 0 0 0 1010.2 1009.3 0.0
03/01:30am 0.6 -1.3 0.6 100 0.0 CALM 0 0 0 0 1010.1 1009.1 0.0
03/01:00am 0.6 -1.3 0.6 100 0.0 CALM 0 0 0 0 1010.6 1009.6 0.0
03/12:30am 0.6 -1.3 0.6 100 0.0 CALM 0 0 0 0 1010.5 1009.5 0.0
03/12:00am 0.6 -1.3 0.6 100 0.0 CALM 0 0 0 0 1010.8 1009.9 0.0
 
Date/Time
EST
Temp
°C
App
Temp
°C
Dew
Point
Rel
Hum
%
Delta-T
°C
Wind Press
QNH
hPa
Press
MSL
hPa
Rain
since 9 am
mm
Dir
 
Spd
km/h
Gust
km/h
Spd
kts
Gust
kts
02/11:30pm 0.6 -1.3 0.6 100 0.0 CALM 0 0 0 0 1011.1 1010.1 0.0
02/11:00pm 0.6 -1.3 0.6 100 0.0 CALM 0 0 0 0 1011.1 1010.1 0.0
02/10:30pm 0.6 -1.3 0.6 100 0.0 CALM 0 0 0 0 1011.1 1010.1 0.0
02/10:00pm 0.6 -1.3 0.6 100 0.0 CALM 0 0 0 0 1011.4 1010.5 0.0
02/09:30pm 0.6 -1.3 0.6 100 0.0 CALM 0 0 0 0 1011.3 1010.4 0.0
02/09:00pm 0.5 -1.4 0.5 100 0.0 CALM 0 0 0 0 1011.3 1010.4 0.0
02/08:30pm 0.4 -1.5 0.4 100 0.0 CALM 0 0 0 0 1011.4 1010.5 0.0
02/08:00pm 0.3 -1.6 0.3 100 0.0 CALM 0 0 0 0 1011.8 1010.9 0.0
02/07:30pm 0.2 -1.8 0.2 100 0.0 CALM 0 0 0 0 1011.9 1011.0 0.0
02/07:00pm 0.2 -1.8 0.2 100 0.0 CALM 0 0 0 0 1012.1 1011.3 0.0
02/06:30pm 0.2 -1.8 0.2 100 0.0 CALM 0 0 0 0 1012.4 1011.5 0.0
02/06:00pm 0.2 -1.8 0.2 100 0.0 CALM 0 0 0 0 1012.3 1011.4 0.0
02/05:30pm 0.1 -1.9 0.1 100 0.0 CALM 0 0 0 0 1012.4 1011.5 0.0
02/05:00pm 0.1 -1.9 0.1 100 0.0 CALM 0 0 0 0 1012.5 1011.6 0.0
02/04:30pm 0.1 -1.9 0.1 100 0.0 CALM 0 0 0 0 1012.7 1011.9 0.0
02/04:00pm 0.1 -1.9 0.1 100 0.0 CALM 0 0 0 0 1012.6 1011.7 0.0
02/03:30pm 0.0 -2.0 0.0 100 0.0 CALM 0 0 0 0 1012.7 1011.9 0.0
02/03:00pm -0.1 -2.1 -0.1 100 0.0 CALM 0 0 0 0 1012.5 1011.6 0.0
02/02:30pm -0.2 -2.2 -0.2 100 0.0 CALM 0 0 0 0 1011.9 1011.0 0.0
02/02:00pm -0.5 -2.6 -0.5 100 0.0 CALM 0 0 0 0 1011.9 1011.0 0.0
02/01:30pm -0.5 -2.6 -0.5 100 0.0 CALM 0 0 0 0 1012.1 1011.3 0.0
02/01:00pm -0.6 -2.7 -0.6 100 0.0 CALM 0 0 0 0 1012.1 1011.3 0.0
02/12:30pm -0.9 -3.0 -0.9 100 0.0 CALM 0 0 0 0 1012.7 1011.9 0.0
02/12:00pm -0.8 -2.9 -0.8 100 0.0 CALM 0 0 0 0 1012.9 1012.0 0.0
02/11:30am -0.7 -2.8 -0.7 100 0.0 CALM 0 0 0 0 1013.2 1012.4 0.0
02/11:00am -0.9 -3.0 -0.9 100 0.0 CALM 0 0 0 0 1013.1 1012.2 0.0
02/10:30am -0.8 -2.9 -0.8 100 0.0 CALM 0 0 0 0 1013.6 1012.7 0.0
02/10:00am -1.1 -3.2 -1.1 100 0.0 CALM 0 0 0 0 1013.8 1013.0 0.0
02/09:30am -1.2 -3.4 -1.2 100 0.0 CALM 0 0 0 0 1013.8 1013.0 0.0
02/09:00am -1.3 -3.5 -1.3 100 0.0 CALM 0 0 0 0 1013.8 1013.0 3.6
02/08:30am -1.4 -3.6 -1.4 100 0.0 CALM 0 0 0 0 1013.7 1012.9 3.6
02/08:00am -1.4 -3.6 -1.4 100 0.0 CALM 0 0 0 0 1013.8 1013.0 3.6
02/07:30am -1.6 -3.8 -1.6 100 0.0 CALM 0 0 0 0 1013.7 1012.9 3.6
02/07:00am -1.7 -3.9 -1.7 100 0.0 CALM 0 0 0 0 1013.6 1012.7 3.6
02/06:30am -1.7 -3.9 -1.7 100 0.0 CALM 0 0 0 0 1013.3 1012.5 3.6
02/06:00am -1.9 -4.1 -1.9 100 0.0 CALM 0 0 0 0 1013.3 1012.5 3.6
02/05:30am -2.0 -4.3 -2.0 100 0.0 CALM 0 0 0 0 1013.5 1012.6 3.6
02/05:00am -1.9 -4.1 -1.9 100 0.0 CALM 0 0 0 0 1013.5 1012.6 3.6
02/04:30am -1.7 -3.9 -1.7 100 0.0 CALM 0 0 0 0 1013.2 1012.4 3.6
02/04:00am -1.3 -3.5 -1.3 100 0.0 CALM 0 0 0 0 1013.1 1012.2 3.6
02/03:30am -1.3 -3.5 -1.3 100 0.0 CALM 0 0 0 0 1013.0 1012.1 3.6
02/03:00am -1.1 -3.2 -1.1 100 0.0 CALM 0 0 0 0 1013.5 1012.6 3.6
02/02:30am -1.2 -3.4 -1.2 100 0.0 CALM 0 0 0 0 1013.6 1012.7 3.6
02/02:00am -1.2 -3.4 -1.2 100 0.0 CALM 0 0 0 0 1013.8 1013.0 3.6
02/01:30am -0.9 -3.0 -0.9 100 0.0 CALM 0 0 0 0 1014.0 1013.2 3.6
02/01:00am -1.0 -3.1 -1.0 100 0.0 CALM 0 0 0 0 1014.0 1013.2 3.6
02/12:30am -1.1 -3.2 -1.1 100 0.0 CALM 0 0 0 0 1014.4 1013.6 3.6
02/12:00am -0.9 -3.0 -0.9 100 0.0 CALM 0 0 0 0 1014.6 1013.9 3.6
 
Date/Time
EST
Temp
°C
App
Temp
°C
Dew
Point
Rel
Hum
%
Delta-T
°C
Wind Press
QNH
hPa
Press
MSL
hPa
Rain
since 9 am
mm
Dir
 
Spd
km/h
Gust
km/h
Spd
kts
Gust
kts
01/11:30pm -0.7 -2.8 -0.7 100 0.0 CALM 0 0 0 0 1014.8 1014.0 3.6
01/11:00pm -0.7 -2.8 -0.7 100 0.0 CALM 0 0 0 0 1014.9 1014.1 3.6
01/10:30pm -0.6 -2.7 -0.6 100 0.0 CALM 0 0 0 0 1015.1 1014.3 3.6
01/10:00pm -0.5 -2.6 -0.5 100 0.0 CALM 0 0 0 0 1015.0 1014.2 3.6
01/09:30pm -0.3 -2.3 -0.3 100 0.0 CALM 0 0 0 0 1014.8 1014.0 3.6
01/09:00pm -0.3 -2.3 -0.3 100 0.0 CALM 0 0 0 0 1014.5 1013.7 3.6
01/08:30pm -0.2 -2.2 -0.2 100 0.0 CALM 0 0 0 0 1014.4 1013.6 3.6
01/08:00pm 0.0 -2.0 0.0 100 0.0 CALM 0 0 0 0 1014.2 1013.4 3.6
01/07:30pm 0.0 -2.0 0.0 100 0.0 CALM 0 0 0 0 1013.6 1012.7 3.6
01/07:00pm 0.0 -2.0 0.0 100 0.0 CALM 0 0 0 0 1013.0 1012.1 3.6
01/06:30pm 0.3 -1.6 0.3 100 0.0 CALM 0 0 0 0 1012.4 1011.5 3.6
01/06:00pm 0.2 -1.8 0.2 100 0.0 CALM 0 0 0 0 1012.0 1011.1 3.6
01/05:30pm 0.4 -1.5 0.4 100 0.0 CALM 0 0 0 0 1011.7 1010.8 3.4
01/05:00pm 0.8 -1.1 0.8 100 0.0 CALM 0 0 0 0 1011.0 1010.0 2.6
01/04:30pm 0.9 -0.9 0.9 100 0.0 CALM 0 0 0 0 1010.6 1009.6 2.4
01/04:00pm 0.8 -1.1 0.8 100 0.0 CALM 0 0 0 0 1010.4 1009.4 2.4
01/03:30pm 0.8 -1.1 0.8 100 0.0 CALM 0 0 0 0 1009.6 1008.7 2.4
01/03:00pm 0.8 -1.1 0.8 100 0.0 CALM 0 0 0 0 1009.6 1008.7 2.2
01/02:30pm 0.9 -0.9 0.9 100 0.0 CALM 0 0 0 0 1008.2 1007.2 1.8
01/02:00pm 1.0 -0.8 1.0 100 0.0 CALM 0 0 0 0 1008.7 1007.7 1.6
01/01:30pm 1.2 -0.6 1.2 100 0.0 CALM 0 0 0 0 1008.3 1007.3 1.6
01/01:00pm 1.1 -0.7 1.1 100 0.0 CALM 0 0 0 0 1007.9 1006.8 1.6
01/12:30pm 1.3 -0.5 1.3 100 0.0 CALM 0 0 0 0 1008.3 1007.3 1.6
01/12:00pm 1.4 -0.4 1.4 100 0.0 CALM 0 0 0 0 1008.7 1007.7 1.6
01/11:30am 1.3 -0.5 1.3 100 0.0 CALM 0 0 0 0 1008.6 1007.5 1.6
01/11:00am 1.9 0.2 1.9 100 0.0 CALM 0 0 0 0 1008.2 1007.2 0.2
01/10:30am 2.3 0.7 2.3 100 0.0 CALM 0 0 0 0 1008.0 1006.9 0.2
01/10:00am 2.5 0.9 2.5 100 0.0 CALM 0 0 0 0 1008.1 1007.0 0.2
01/09:30am 3.1 1.6 3.1 100 0.0 CALM 0 0 0 0 1007.0 1003.6 0.2
01/09:00am 4.0 2.7 4.0 100 0.0 CALM 0 0 0 0 1007.6 1004.2 33.8
01/08:30am 3.7 2.3 3.7 100 0.0 CALM 0 0 0 0 1008.7 1005.3 33.4
01/08:00am 4.6 3.4 4.6 100 0.0 CALM 0 0 0 0 1009.0 1005.7 33.4
01/07:30am 5.6 4.6 5.6 100 0.0 CALM 0 0 0 0 1010.0 1006.6 33.4
01/07:00am 6.3 5.5 6.3 100 0.0 CALM 0 0 0 0 1009.5 1006.1 33.4
01/06:30am 6.4 5.6 6.4 100 0.0 CALM 0 0 0 0 1009.4 1006.0 33.4
01/06:00am 7.3 6.7 7.3 100 0.0 CALM 0 0 0 0 1009.2 1005.8 33.2
01/05:30am 8.6 8.3 8.6 100 0.0 CALM 0 0 0 0 1008.2 1004.8 27.8
01/05:00am 8.1 7.7 8.1 100 0.0 CALM 0 0 0 0 1008.7 1005.3 23.4
01/04:30am 7.8 7.3 7.8 100 0.0 CALM 0 0 0 0 1008.6 1005.2 18.6
01/04:00am 7.6 7.0 7.6 100 0.0 CALM 0 0 0 0 1009.6 1006.3 12.2
01/03:30am 8.5 0.8 8.5 100 0.0 N 39 65 21 35 1009.8 1006.4 4.6
01/03:00am 8.6 -0.1 8.6 100 0.0 N 44 70 24 38 1010.6 1007.3 2.4
01/02:33am 8.5 -1.3 8.5 100 0.0 N 50 69 27 37 1011.1 1007.8 2.0
01/02:30am 8.5 -1.3 8.5 100 0.0 N 50 67 27 36 1011.1 1007.8 2.0
01/02:03am 8.4 -2.6 8.4 100 0.0 N 56 74 30 40 1012.0 1008.7 1.8
01/02:00am 8.4 -2.8 8.4 100 0.0 N 57 74 31 40 1011.9 1008.6 1.8
01/01:30am 8.4 -2.2 8.4 100 0.0 N 54 74 29 40 1012.7 1009.5 1.8
01/01:03am 8.4 -0.3 8.4 100 0.0 N 44 69 24 37 1013.2 1010.0 1.8
01/01:00am 8.5 -0.2 8.5 100 0.0 N 44 59 24 32 1013.3 1010.1 1.8
01/12:30am 8.3 -0.4 8.3 100 0.0 N 44 63 24 34 1014.2 1011.0 1.6
01/12:04am 8.5 0.8 8.5 100 0.0 N 39 57 21 31 1015.0 1011.8 1.6
01/12:00am 8.4 0.2 8.4 100 0.0 N 41 57 22 31 1015.1 1011.9 1.6
 
Date/Time
EST
Temp
°C
App
Temp
°C
Dew
Point
Rel
Hum
%
Delta-T
°C
Wind Press
QNH
hPa
Press
MSL
hPa
Rain
since 9 am
mm
Dir
 
Spd
km/h
Gust
km/h
Spd
kts
Gust
kts
30/11:30pm 8.4 -0.7 8.4 100 0.0 N 46 65 25 35 1015.6 1012.4 1.4
30/11:00pm 8.2 -0.4 8.2 100 0.0 N 43 65 23 35 1016.4 1013.3 1.4
30/10:30pm 8.2 0.0 8.2 100 0.0 N 41 59 22 32 1017.0 1013.9 1.2
30/10:09pm 7.8 -1.1 7.8 100 0.0 N 44 65 24 35 1017.1 1014.0 1.2
30/10:00pm 8.1 -0.1 8.1 100 0.0 N 41 57 22 31 1017.4 1014.3 1.2
30/09:35pm 8.2 0.4 8.2 100 0.0 N 39 57 21 31 1017.6 1014.5 1.2
30/09:30pm 8.3 -0.3 8.3 100 0.0 NNE 43 57 23 31 1017.9 1014.8 1.2
30/09:00pm 8.1 -0.5 8.1 100 0.0 NNE 43 61 23 33 1017.7 1014.7 1.0
30/08:35pm 8.2 0.4 8.2 100 0.0 NNE 39 57 21 31 1017.9 1014.8 1.0
30/08:30pm 8.3 -0.3 8.3 100 0.0 NNE 43 57 23 31 1017.9 1014.8 1.0
30/08:03pm 8.3 0.5 8.3 100 0.0 NNE 39 57 21 31 1018.0 1014.9 1.0
30/08:00pm 8.1 -0.5 8.1 100 0.0 NNE 43 57 23 31 1018.0 1014.9 1.0
30/07:30pm 8.2 -0.4 8.2 100 0.0 NNE 43 65 23 35 1017.7 1014.7 1.0
30/07:01pm 7.9 0.0 7.9 100 0.0 NNE 39 57 21 31 1017.4 1014.3 1.0
30/07:00pm 8.0 0.1 8.0 100 0.0 NNE 39 54 21 29 1017.5 1014.4 1.0
30/06:51pm 7.9 0.0 7.9 100 0.0 NNE 39 57 21 31 1017.7 1014.7 1.0
30/06:30pm 7.9 -0.8 7.9 100 0.0 NNE 43 59 23 32 1017.9 1014.8 1.0
30/06:00pm 8.3 0.5 8.3 100 0.0 NNE 39 57 21 31 1017.7 1014.7 1.0
30/05:38pm 8.4 1.8 8.4 100 0.0 NNE 33 52 18 28 1018.1 1015.0 1.0
30/05:30pm 8.4 0.6 8.4 100 0.0 NNE 39 52 21 28 1018.0 1014.9 1.0
30/05:00pm 8.4 1.0 8.4 100 0.0 NNE 37 56 20 30 1018.2 1015.2 1.0
30/04:30pm 8.5 0.8 8.5 100 0.0 NNE 39 57 21 31 1018.0 1014.9 1.0
30/04:00pm 8.6 0.9 8.6 100 0.0 NNE 39 61 21 33 1018.3 1015.3 1.0
30/03:55pm 8.6 0.9 8.6 100 0.0 NNE 39 61 21 33 1018.1 1015.0 1.0
30/03:30pm 8.6 1.3 8.6 100 0.0 NNE 37 50 20 27 1018.2 1015.2 1.0
30/03:05pm 8.6 1.6 8.6 100 0.0 NNE 35 54 19 29 1018.2 1015.2 0.8
30/03:00pm 8.8 1.5 8.8 100 0.0 NNE 37 54 20 29 1018.2 1015.2 0.8
30/02:30pm 8.7 2.3 8.7 100 0.0 NNE 32 46 17 25 1018.4 1015.4 0.8
30/02:00pm 8.5 1.5 8.5 100 0.0 NNE 35 50 19 27 1018.7 1015.7 0.8
30/01:47pm 8.6 2.0 8.6 100 0.0 NNE 33 52 18 28 1018.8 1015.8 0.8
30/01:30pm 8.5 0.8 8.5 100 0.0 NNE 39 56 21 30 1018.8 1015.8 0.8
30/01:18pm 8.7 2.1 8.7 100 0.0 NNE 33 52 18 28 1018.9 1015.9 0.8

Other Formats:

Comma delimited format used in spreadsheet applications
http://www.bom.gov.au/fwo/IDV60801/IDV60801.94903.axf

JavaScript Object Notation format (JSON) in row-major order
http://www.bom.gov.au/fwo/IDV60801/IDV60801.94903.json